HUAL Seoul — LADO6 — position and weather

sailwx.info

Track history (hours):
 
Tides and Currents Weather Stations Pressure Air Temp Water Temp Dewpoint Dewpoint Depression Visibility Wind Speed Wind Dir Waves Ship Positions

HUAL Seoul

Last reported at 2016-Jun-23 20:29 UTC. Time now 2016-Jun-26 01:03 UTC.
Position N 24°05' E 120°06'.

Type: Cargo ship. MMSI: 257496000.

Date/timePositionNaut miles runAvg speedWind from/ knotsBaromVisibWave heightAir tempDewpointWater temp
2016-Jun-23 20:29N 24°05' E 120°06'7514.1
2016-Jun-23 15:08N 22°51' E 119°51'1016.5
2016-Jun-23 14:33N 22°42' E 119°51'1615.8
2016-Jun-23 13:33N 22°26' E 119°47'2116.3
2016-Jun-23 12:15N 22°08' E 119°36'  
2016-Jun-19 15:07N 01°16' E 104°10'1016.8
2016-Jun-19 14:33N 01°14' E 104°00'9 8.8
2016-Jun-19 13:33N 01°15' E 103°52'0 0.2
2016-Jun-19 12:29N 01°15' E 103°52'0 0.0
2016-Jun-19 11:29N 01°15' E 103°52'0 0.0
2016-Jun-19 10:32N 01°15' E 103°52'0 0.0
2016-Jun-19 09:29N 01°15' E 103°52'0 0.1
2016-Jun-19 08:23N 01°15' E 103°52'0 0.1
2016-Jun-19 07:32N 01°15' E 103°52'0 0.0
2016-Jun-19 06:32N 01°15' E 103°52'0 0.0
2016-Jun-19 05:29N 01°15' E 103°52'0 0.0
2016-Jun-19 04:28N 01°15' E 103°52'0 0.0
2016-Jun-19 03:32N 01°15' E 103°52'0 0.0
2016-Jun-19 02:23N 01°15' E 103°52'0 0.1
2016-Jun-19 01:29N 01°15' E 103°52'0 0.0
2016-Jun-19 00:29N 01°15' E 103°52'1 0.8
2016-Jun-18 23:33N 01°15' E 103°52'7 7.3
2016-Jun-18 22:33N 01°16' E 103°45'1 0.8
2016-Jun-18 21:31N 01°17' E 103°45'0 0.0
2016-Jun-18 20:13N 01°17' E 103°45'0 0.0
2016-Jun-18 19:28N 01°17' E 103°45'0 0.0
2016-Jun-18 18:28N 01°17' E 103°45'0 0.0
2016-Jun-18 17:28N 01°17' E 103°45'0 0.0
2016-Jun-18 16:28N 01°17' E 103°45'0 0.0
2016-Jun-18 15:28N 01°17' E 103°45'0 0.0
2016-Jun-18 14:25N 01°17' E 103°45'0 0.0
2016-Jun-18 13:28N 01°17' E 103°45'1 0.8
2016-Jun-18 12:33N 01°17' E 103°45'6 6.5
2016-Jun-18 11:33N 01°12' E 103°40'7113.6
2016-Jun-18 06:20N 01°43' E 102°36'1216.2
2016-Jun-18 05:33N 01°48' E 102°25'  
Track history (hours):
 
Tides and Currents Weather Stations Pressure Air Temp Water Temp Dewpoint Dewpoint Depression Visibility Wind Speed Wind Dir Waves Ship Positions

HUAL Seoul

Last reported at 2016-Jun-23 20:29 UTC. Time now 2016-Jun-26 01:03 UTC.
Position N 24°05' E 120°06'.

Type: Cargo ship. MMSI: 257496000.

Date/timePositionNaut miles runAvg speedWind from/ knotsBaromVisibWave heightAir tempDewpointWater temp
2016-Jun-23 20:29N 24°05' E 120°06'7514.1
2016-Jun-23 15:08N 22°51' E 119°51'1016.5
2016-Jun-23 14:33N 22°42' E 119°51'1615.8
2016-Jun-23 13:33N 22°26' E 119°47'2116.3
2016-Jun-23 12:15N 22°08' E 119°36'  
2016-Jun-19 15:07N 01°16' E 104°10'1016.8
2016-Jun-19 14:33N 01°14' E 104°00'9 8.8
2016-Jun-19 13:33N 01°15' E 103°52'0 0.2
2016-Jun-19 12:29N 01°15' E 103°52'0 0.0
2016-Jun-19 11:29N 01°15' E 103°52'0 0.0
2016-Jun-19 10:32N 01°15' E 103°52'0 0.0
2016-Jun-19 09:29N 01°15' E 103°52'0 0.1
2016-Jun-19 08:23N 01°15' E 103°52'0 0.1
2016-Jun-19 07:32N 01°15' E 103°52'0 0.0
2016-Jun-19 06:32N 01°15' E 103°52'0 0.0
2016-Jun-19 05:29N 01°15' E 103°52'0 0.0
2016-Jun-19 04:28N 01°15' E 103°52'0 0.0
2016-Jun-19 03:32N 01°15' E 103°52'0 0.0
2016-Jun-19 02:23N 01°15' E 103°52'0 0.1
2016-Jun-19 01:29N 01°15' E 103°52'0 0.0
2016-Jun-19 00:29N 01°15' E 103°52'1 0.8
2016-Jun-18 23:33N 01°15' E 103°52'7 7.3
2016-Jun-18 22:33N 01°16' E 103°45'1 0.8
2016-Jun-18 21:31N 01°17' E 103°45'0 0.0
2016-Jun-18 20:13N 01°17' E 103°45'0 0.0
2016-Jun-18 19:28N 01°17' E 103°45'0 0.0
2016-Jun-18 18:28N 01°17' E 103°45'0 0.0
2016-Jun-18 17:28N 01°17' E 103°45'0 0.0
2016-Jun-18 16:28N 01°17' E 103°45'0 0.0
2016-Jun-18 15:28N 01°17' E 103°45'0 0.0
2016-Jun-18 14:25N 01°17' E 103°45'0 0.0
2016-Jun-18 13:28N 01°17' E 103°45'1 0.8
2016-Jun-18 12:33N 01°17' E 103°45'6 6.5
2016-Jun-18 11:33N 01°12' E 103°40'7113.6
2016-Jun-18 06:20N 01°43' E 102°36'1216.2
2016-Jun-18 05:33N 01°48' E 102°25'  

Dump ship's entire track history